createdAt,value
2022-12-31T00:00:52.520Z,0.00
2022-12-31T00:01:52.515Z,0.00
2022-12-31T00:02:52.625Z,0.00
2022-12-31T00:03:52.531Z,0.00
2022-12-31T00:04:52.480Z,0.00
2022-12-31T00:05:52.459Z,0.00
2022-12-31T00:06:52.473Z,0.00
2022-12-31T00:07:52.431Z,0.00
2022-12-31T00:08:52.416Z,0.00
2022-12-31T00:09:52.423Z,0.00
2022-12-31T00:10:52.400Z,0.00
2022-12-31T00:11:52.400Z,0.00
2022-12-31T00:12:52.371Z,0.00
2022-12-31T00:13:52.361Z,0.00
2022-12-31T00:14:52.355Z,0.00
2022-12-31T00:15:52.371Z,0.00
2022-12-31T00:16:52.329Z,0.00
2022-12-31T00:17:52.354Z,0.00
2022-12-31T00:18:52.339Z,0.00
2022-12-31T00:19:52.318Z,0.00
2022-12-31T00:20:52.302Z,0.00
2022-12-31T00:21:52.293Z,0.00
2022-12-31T00:22:52.253Z,0.00
2022-12-31T00:23:52.260Z,0.00
2022-12-31T00:24:52.257Z,0.00
2022-12-31T00:25:52.220Z,0.00
2022-12-31T00:26:52.230Z,0.00
2022-12-31T00:27:52.217Z,0.00
2022-12-31T00:28:52.186Z,0.00
2022-12-31T00:29:52.173Z,0.00
2022-12-31T00:30:52.208Z,0.00
2022-12-31T00:31:52.173Z,0.00
2022-12-31T00:32:52.165Z,0.00
2022-12-31T00:33:52.144Z,0.00
2022-12-31T00:34:52.123Z,0.00
2022-12-31T00:35:52.132Z,0.00
2022-12-31T00:36:52.107Z,0.00
2022-12-31T00:37:52.099Z,0.00
2022-12-31T00:38:52.095Z,0.00
2022-12-31T00:39:52.084Z,0.00
2022-12-31T00:40:52.066Z,0.00
2022-12-31T00:41:52.069Z,0.00
2022-12-31T00:42:52.121Z,0.00
2022-12-31T00:43:52.018Z,0.00
2022-12-31T00:44:52.029Z,0.00
2022-12-31T00:45:52.115Z,0.00
2022-12-31T00:46:51.998Z,0.00
2022-12-31T00:47:51.970Z,0.00
2022-12-31T00:48:51.977Z,0.00
2022-12-31T00:49:51.971Z,0.00
2022-12-31T00:50:51.948Z,0.00
2022-12-31T00:51:51.975Z,0.00
2022-12-31T00:52:51.924Z,0.00
2022-12-31T00:53:51.918Z,0.00
2022-12-31T00:54:51.915Z,0.00
2022-12-31T00:55:51.885Z,0.00
2022-12-31T00:56:51.876Z,0.00
2022-12-31T00:57:51.870Z,0.00
2022-12-31T00:58:51.871Z,0.00
2022-12-31T00:59:51.843Z,0.00
2022-12-31T01:00:51.831Z,0.00
2022-12-31T01:01:51.948Z,0.00
2022-12-31T01:02:51.925Z,0.00
2022-12-31T01:03:51.791Z,0.00
2022-12-31T01:04:51.781Z,0.00
2022-12-31T01:05:51.793Z,0.00
2022-12-31T01:06:51.769Z,0.00
2022-12-31T01:07:51.806Z,0.00
2022-12-31T01:08:51.729Z,0.00
2022-12-31T01:09:51.723Z,0.00
2022-12-31T01:10:51.704Z,0.00
2022-12-31T01:11:51.700Z,0.00
2022-12-31T01:12:51.759Z,0.00
2022-12-31T01:13:51.684Z,0.00
2022-12-31T01:14:51.690Z,0.00
2022-12-31T01:15:51.700Z,0.00
2022-12-31T01:16:51.667Z,0.00
2022-12-31T01:17:51.643Z,0.00
2022-12-31T01:18:51.649Z,0.00
2022-12-31T01:19:51.617Z,0.00
2022-12-31T01:20:51.602Z,0.00
2022-12-31T01:21:51.617Z,0.00
2022-12-31T01:22:51.590Z,0.00
2022-12-31T01:23:51.592Z,0.00
2022-12-31T01:24:51.576Z,0.00
2022-12-31T01:25:51.544Z,0.00
2022-12-31T01:26:51.539Z,0.00
2022-12-31T01:27:51.541Z,0.00
2022-12-31T01:28:51.499Z,0.00
2022-12-31T01:29:51.511Z,0.00
2022-12-31T01:30:51.518Z,0.00
2022-12-31T01:31:51.491Z,0.00
2022-12-31T01:32:51.464Z,0.00
2022-12-31T01:33:51.478Z,0.00
2022-12-31T01:34:51.445Z,0.00
2022-12-31T01:35:51.444Z,0.00
2022-12-31T01:36:51.404Z,0.00
2022-12-31T01:37:51.428Z,0.00
2022-12-31T01:38:51.398Z,0.00
2022-12-31T01:39:51.419Z,0.00
2022-12-31T01:40:51.380Z,0.00
2022-12-31T01:41:51.376Z,0.00
2022-12-31T01:42:51.369Z,0.00
2022-12-31T01:43:51.354Z,0.00
2022-12-31T01:44:51.355Z,0.00
2022-12-31T01:45:51.305Z,0.00
2022-12-31T01:46:51.335Z,0.00
2022-12-31T01:47:51.294Z,0.00
2022-12-31T01:48:51.267Z,0.00
2022-12-31T01:49:51.265Z,0.00
2022-12-31T01:50:51.262Z,0.00
2022-12-31T01:51:51.263Z,0.00
2022-12-31T01:52:51.259Z,0.00
2022-12-31T01:53:51.255Z,0.00
2022-12-31T01:54:51.235Z,0.00
2022-12-31T01:55:51.239Z,0.00
2022-12-31T01:56:51.197Z,0.00
2022-12-31T01:57:51.180Z,0.00
2022-12-31T01:58:51.196Z,0.00
2022-12-31T01:59:51.149Z,0.00
2022-12-31T02:00:51.185Z,0.00
2022-12-31T02:01:51.267Z,0.00
2022-12-31T02:02:51.284Z,0.00
2022-12-31T02:03:51.123Z,0.00
2022-12-31T02:04:51.128Z,0.00
2022-12-31T02:05:51.078Z,0.00
2022-12-31T02:06:51.099Z,0.00
2022-12-31T02:07:51.064Z,0.00
2022-12-31T02:08:51.074Z,0.00
2022-12-31T02:09:51.042Z,0.00
2022-12-31T02:10:51.017Z,0.00
2022-12-31T02:11:51.048Z,0.00
2022-12-31T02:12:51.027Z,0.00
2022-12-31T02:13:56.525Z,0.00
2022-12-31T02:14:52.017Z,0.00
2022-12-31T02:15:51.091Z,0.00
2022-12-31T02:16:50.954Z,0.00
2022-12-31T02:17:50.955Z,0.00
2022-12-31T02:18:51.011Z,0.00
2022-12-31T02:19:50.938Z,0.00
2022-12-31T02:20:50.916Z,0.00
2022-12-31T02:21:50.889Z,0.00
2022-12-31T02:22:50.908Z,0.00
2022-12-31T02:23:50.895Z,0.00
2022-12-31T02:24:50.891Z,0.00
2022-12-31T02:25:50.869Z,0.00
2022-12-31T02:26:50.836Z,0.00
2022-12-31T02:27:50.870Z,0.00
2022-12-31T02:28:50.834Z,0.00
2022-12-31T02:29:50.804Z,0.00
2022-12-31T02:30:50.825Z,0.00
2022-12-31T02:31:50.790Z,0.00
2022-12-31T02:32:50.793Z,0.00
2022-12-31T02:33:50.765Z,0.00
2022-12-31T02:34:50.769Z,0.00
2022-12-31T02:35:50.754Z,0.00
2022-12-31T02:36:50.735Z,0.00
2022-12-31T02:37:50.733Z,0.00
2022-12-31T02:38:50.720Z,0.00
2022-12-31T02:39:50.694Z,0.00
2022-12-31T02:40:50.680Z,0.00
2022-12-31T02:41:50.760Z,0.00
2022-12-31T02:42:55.294Z,0.00
2022-12-31T02:43:51.681Z,0.00
2022-12-31T02:44:50.630Z,0.00
2022-12-31T02:45:50.632Z,0.00
2022-12-31T02:46:50.654Z,0.00
2022-12-31T02:47:50.609Z,0.00
2022-12-31T02:48:50.595Z,0.00
2022-12-31T02:49:50.590Z,0.00
2022-12-31T02:50:50.569Z,0.00
2022-12-31T02:51:50.604Z,0.00
2022-12-31T02:52:50.554Z,0.00
2022-12-31T02:53:50.559Z,0.00
2022-12-31T02:54:50.555Z,0.00
2022-12-31T02:55:50.540Z,0.00
2022-12-31T02:56:50.522Z,0.00
2022-12-31T02:57:50.491Z,0.00
2022-12-31T02:58:50.474Z,0.00
2022-12-31T02:59:50.501Z,0.00
2022-12-31T03:00:50.475Z,0.00
2022-12-31T03:01:50.566Z,0.00
2022-12-31T03:02:50.527Z,0.00
2022-12-31T03:03:50.429Z,0.00
2022-12-31T03:04:50.441Z,0.00
2022-12-31T03:05:50.409Z,0.00
2022-12-31T03:06:50.403Z,0.00
2022-12-31T03:07:50.390Z,0.00
2022-12-31T03:08:50.364Z,0.00
2022-12-31T03:09:50.359Z,0.00
2022-12-31T03:10:50.372Z,0.00
2022-12-31T03:11:50.340Z,0.00
2022-12-31T03:12:50.319Z,0.00
2022-12-31T03:13:50.302Z,0.00
2022-12-31T03:14:50.314Z,0.00
2022-12-31T03:15:50.391Z,0.00
2022-12-31T03:16:50.279Z,0.00
2022-12-31T03:17:50.282Z,0.00
2022-12-31T03:18:50.244Z,0.00
2022-12-31T03:19:50.252Z,0.00
2022-12-31T03:20:50.234Z,0.00
2022-12-31T03:21:50.211Z,0.00
2022-12-31T03:22:50.203Z,0.00
2022-12-31T03:23:50.302Z,0.00
2022-12-31T03:24:50.187Z,0.00
2022-12-31T03:25:50.180Z,0.00
2022-12-31T03:26:50.175Z,0.00
2022-12-31T03:27:50.140Z,0.00
2022-12-31T03:28:50.160Z,0.00
2022-12-31T03:29:50.137Z,0.00
2022-12-31T03:30:50.128Z,0.00
2022-12-31T03:31:50.238Z,0.00
2022-12-31T03:32:50.131Z,0.00
2022-12-31T03:33:50.087Z,0.00
2022-12-31T03:34:50.070Z,0.00
2022-12-31T03:35:50.059Z,0.00
2022-12-31T03:36:50.040Z,0.00
2022-12-31T03:37:50.063Z,0.00
2022-12-31T03:38:52.836Z,0.00
2022-12-31T03:39:50.016Z,0.00
2022-12-31T03:40:49.998Z,0.00
2022-12-31T03:41:50.014Z,0.00
2022-12-31T03:42:50.003Z,0.00
2022-12-31T03:43:49.964Z,0.00
2022-12-31T03:44:49.961Z,0.00
2022-12-31T03:45:50.005Z,0.00
2022-12-31T03:46:49.931Z,0.00
2022-12-31T03:47:49.959Z,0.00
2022-12-31T03:48:49.932Z,0.00
2022-12-31T03:49:49.889Z,0.00
2022-12-31T03:50:49.890Z,0.00
2022-12-31T03:51:49.893Z,0.00
2022-12-31T03:52:49.876Z,0.00
2022-12-31T03:53:49.861Z,0.00
2022-12-31T03:54:49.836Z,0.00
2022-12-31T03:55:49.827Z,0.00
2022-12-31T03:56:52.066Z,0.00
2022-12-31T03:57:49.830Z,0.00
2022-12-31T03:58:49.803Z,0.00
2022-12-31T03:59:49.797Z,0.00
2022-12-31T04:00:49.834Z,0.00
2022-12-31T04:01:49.873Z,0.00
2022-12-31T04:02:49.863Z,0.00
2022-12-31T04:03:49.766Z,0.00
2022-12-31T04:04:49.737Z,0.00
2022-12-31T04:05:49.736Z,0.00
2022-12-31T04:06:49.698Z,0.00
2022-12-31T04:07:49.695Z,0.00
2022-12-31T04:08:49.681Z,0.00
2022-12-31T04:09:49.669Z,0.00
2022-12-31T04:10:49.671Z,0.00
2022-12-31T04:11:49.661Z,0.00
2022-12-31T04:12:49.641Z,0.00
2022-12-31T04:13:49.641Z,0.00
2022-12-31T04:14:49.623Z,0.00
2022-12-31T04:15:49.637Z,0.00
2022-12-31T04:16:49.667Z,0.00
2022-12-31T04:17:49.588Z,0.00
2022-12-31T04:18:49.591Z,0.00
2022-12-31T04:19:49.590Z,0.00
2022-12-31T04:20:49.577Z,0.00
2022-12-31T04:21:49.544Z,0.00
2022-12-31T04:22:49.545Z,0.00
2022-12-31T04:23:49.533Z,0.00
2022-12-31T04:24:49.496Z,0.00
2022-12-31T04:25:49.520Z,0.00
2022-12-31T04:26:49.487Z,0.00
2022-12-31T04:27:49.465Z,0.00
2022-12-31T04:28:49.465Z,0.00
2022-12-31T04:29:49.457Z,0.00
2022-12-31T04:30:49.440Z,0.00
2022-12-31T04:31:49.499Z,0.00
2022-12-31T04:32:49.403Z,0.00
2022-12-31T04:33:49.415Z,0.00
2022-12-31T04:34:49.393Z,0.00
2022-12-31T04:35:49.445Z,0.00
2022-12-31T04:36:49.372Z,0.00
2022-12-31T04:37:49.346Z,0.00
2022-12-31T04:38:49.339Z,0.00
2022-12-31T04:39:49.336Z,0.00
2022-12-31T04:40:49.328Z,0.00
2022-12-31T04:41:49.325Z,0.00
2022-12-31T04:42:49.325Z,0.00
2022-12-31T04:43:49.282Z,0.00
2022-12-31T04:44:49.281Z,0.00
2022-12-31T04:45:49.303Z,0.00
2022-12-31T04:46:49.255Z,0.00
2022-12-31T04:47:49.233Z,0.00
2022-12-31T04:48:49.267Z,0.00
2022-12-31T04:49:49.211Z,0.00
2022-12-31T04:50:49.214Z,0.00
2022-12-31T04:51:49.212Z,0.00
2022-12-31T04:52:49.196Z,0.00
2022-12-31T04:53:49.175Z,0.00
2022-12-31T04:54:49.171Z,0.00
2022-12-31T04:55:49.143Z,0.00
2022-12-31T04:56:49.160Z,0.00
2022-12-31T04:57:49.131Z,0.00
2022-12-31T04:58:49.149Z,0.00
2022-12-31T04:59:49.110Z,0.00
2022-12-31T05:00:49.151Z,0.00
2022-12-31T05:01:49.236Z,0.00
2022-12-31T05:02:49.256Z,0.00
2022-12-31T05:03:49.061Z,0.00
2022-12-31T05:04:49.075Z,0.00
2022-12-31T05:05:49.046Z,0.00
2022-12-31T05:06:49.020Z,0.00
2022-12-31T05:07:49.061Z,0.00
2022-12-31T05:08:49.025Z,0.00
2022-12-31T05:09:49.006Z,0.00
2022-12-31T05:10:48.988Z,0.00
2022-12-31T05:11:48.958Z,0.00
2022-12-31T05:12:48.959Z,0.00
2022-12-31T05:13:48.974Z,0.00
2022-12-31T05:14:48.939Z,0.00
2022-12-31T05:15:48.928Z,0.00
2022-12-31T05:16:49.053Z,0.00
2022-12-31T05:17:48.896Z,0.00
2022-12-31T05:18:48.884Z,0.00
2022-12-31T05:19:48.873Z,0.00
2022-12-31T05:20:48.872Z,0.00
2022-12-31T05:21:48.864Z,0.00
2022-12-31T05:22:48.861Z,0.00
2022-12-31T05:23:48.877Z,0.00
2022-12-31T05:24:48.828Z,0.00
2022-12-31T05:25:48.801Z,0.00
2022-12-31T05:26:48.829Z,0.00
2022-12-31T05:27:48.797Z,0.00
2022-12-31T05:28:48.784Z,0.00
2022-12-31T05:29:48.792Z,0.00
2022-12-31T05:30:48.820Z,0.00
2022-12-31T05:31:48.735Z,0.00
2022-12-31T05:32:48.734Z,0.00
2022-12-31T05:33:48.742Z,0.00
2022-12-31T05:34:48.714Z,0.00
2022-12-31T05:35:48.698Z,0.00
2022-12-31T05:36:48.689Z,0.00
2022-12-31T05:37:48.694Z,0.00
2022-12-31T05:38:48.674Z,0.00
2022-12-31T05:39:48.674Z,0.00
2022-12-31T05:40:48.680Z,0.00
2022-12-31T05:41:48.661Z,0.00
2022-12-31T05:42:48.634Z,0.00
2022-12-31T05:43:48.624Z,0.00
2022-12-31T05:44:48.602Z,0.00
2022-12-31T05:45:48.592Z,0.00
2022-12-31T05:46:48.567Z,0.00
2022-12-31T05:47:48.570Z,0.00
2022-12-31T05:48:48.579Z,0.00
2022-12-31T05:49:48.531Z,0.00
2022-12-31T05:50:48.539Z,0.00
2022-12-31T05:51:48.525Z,0.00
2022-12-31T05:52:48.527Z,0.00
2022-12-31T05:53:48.518Z,0.00
2022-12-31T05:54:48.510Z,0.00
2022-12-31T05:55:48.520Z,0.00
2022-12-31T05:56:48.474Z,0.00
2022-12-31T05:57:48.470Z,0.00
2022-12-31T05:58:48.483Z,0.00
2022-12-31T05:59:48.426Z,0.00
2022-12-31T06:00:48.416Z,0.00
2022-12-31T06:01:48.466Z,0.00
2022-12-31T06:02:48.495Z,0.00
2022-12-31T06:03:48.485Z,0.00
2022-12-31T06:04:48.413Z,0.00
2022-12-31T06:05:48.377Z,0.00
2022-12-31T06:06:48.349Z,0.00
2022-12-31T06:07:48.364Z,0.00
2022-12-31T06:08:48.386Z,0.00
2022-12-31T06:09:48.306Z,0.00
2022-12-31T06:10:48.303Z,0.00
2022-12-31T06:11:48.359Z,0.00
2022-12-31T06:12:48.291Z,0.00
2022-12-31T06:13:48.312Z,0.00
2022-12-31T06:14:48.270Z,0.00
2022-12-31T06:15:48.291Z,0.00
2022-12-31T06:16:48.270Z,0.00
2022-12-31T06:17:48.230Z,0.00
2022-12-31T06:18:48.236Z,0.00
2022-12-31T06:19:48.196Z,0.00
2022-12-31T06:20:48.234Z,0.00
2022-12-31T06:21:48.201Z,0.00
2022-12-31T06:22:48.176Z,0.00
2022-12-31T06:23:48.150Z,0.00
2022-12-31T06:24:48.160Z,0.00
2022-12-31T06:25:48.121Z,0.00
2022-12-31T06:26:48.167Z,0.00
2022-12-31T06:27:48.316Z,0.00
2022-12-31T06:28:48.087Z,0.00
2022-12-31T06:29:48.133Z,0.00
2022-12-31T06:30:48.114Z,0.00
2022-12-31T06:31:48.079Z,0.00
2022-12-31T06:32:48.094Z,0.00
2022-12-31T06:33:48.054Z,0.00
2022-12-31T06:34:48.034Z,0.00
2022-12-31T06:35:48.043Z,0.00
2022-12-31T06:36:48.025Z,0.00
2022-12-31T06:37:48.011Z,0.00
2022-12-31T06:38:48.015Z,0.00
2022-12-31T06:39:48.023Z,0.00
2022-12-31T06:40:47.982Z,0.00
2022-12-31T06:41:47.959Z,0.00
2022-12-31T06:42:47.953Z,0.00
2022-12-31T06:43:47.966Z,0.00
2022-12-31T06:44:47.919Z,0.00
2022-12-31T06:45:47.946Z,0.00
2022-12-31T06:46:48.027Z,0.00
2022-12-31T06:47:47.904Z,0.00
2022-12-31T06:48:47.882Z,0.00
2022-12-31T06:49:47.900Z,0.00
2022-12-31T06:50:47.870Z,0.00
2022-12-31T06:51:47.860Z,0.00
2022-12-31T06:52:47.869Z,0.00
2022-12-31T06:53:47.834Z,0.00
2022-12-31T06:54:47.830Z,0.00
2022-12-31T06:55:47.813Z,0.00
2022-12-31T06:56:47.800Z,0.00
2022-12-31T06:57:47.771Z,0.00
2022-12-31T06:58:47.823Z,0.00
2022-12-31T06:59:47.808Z,0.00
2022-12-31T07:00:47.752Z,0.00
2022-12-31T07:01:47.850Z,0.00
2022-12-31T07:02:47.797Z,0.00
2022-12-31T07:03:47.708Z,0.00
2022-12-31T07:04:47.943Z,0.00
2022-12-31T07:05:47.697Z,0.00
2022-12-31T07:06:47.705Z,0.00
2022-12-31T07:07:47.682Z,0.00
2022-12-31T07:08:47.679Z,4.00
2022-12-31T07:09:47.662Z,4.00
2022-12-31T07:10:47.632Z,4.00
2022-12-31T07:11:47.617Z,4.00
2022-12-31T07:12:47.627Z,4.00
2022-12-31T07:13:47.597Z,8.00
2022-12-31T07:14:47.613Z,4.00
2022-12-31T07:15:47.654Z,8.00
2022-12-31T07:16:47.563Z,8.00
2022-12-31T07:17:47.554Z,12.00
2022-12-31T07:18:47.573Z,12.00
2022-12-31T07:19:51.131Z,16.00
2022-12-31T07:20:48.522Z,16.00
2022-12-31T07:21:47.536Z,16.00
2022-12-31T07:22:47.502Z,20.00
2022-12-31T07:23:47.517Z,24.00
2022-12-31T07:24:47.475Z,24.00
2022-12-31T07:25:47.470Z,28.00
2022-12-31T07:26:52.569Z,24.00
2022-12-31T07:27:48.460Z,24.00
2022-12-31T07:28:47.440Z,28.00
2022-12-31T07:29:47.453Z,32.00
2022-12-31T07:30:47.407Z,44.00
2022-12-31T07:31:47.404Z,44.00
2022-12-31T07:32:47.432Z,44.00
2022-12-31T07:33:47.381Z,48.00
2022-12-31T07:34:47.391Z,48.00
2022-12-31T07:35:47.336Z,60.00
2022-12-31T07:36:47.346Z,76.00
2022-12-31T07:37:47.357Z,88.00
2022-12-31T07:38:47.342Z,84.00
2022-12-31T07:39:47.314Z,80.00
2022-12-31T07:40:47.327Z,72.00
2022-12-31T07:41:47.284Z,76.00
2022-12-31T07:42:47.304Z,96.00
2022-12-31T07:43:47.272Z,112.00
2022-12-31T07:44:47.253Z,112.00
2022-12-31T07:45:47.234Z,108.00
2022-12-31T07:46:47.270Z,108.00
2022-12-31T07:47:47.255Z,108.00
2022-12-31T07:48:47.262Z,104.00
2022-12-31T07:49:47.231Z,104.00
2022-12-31T07:50:47.195Z,108.00
2022-12-31T07:51:47.208Z,120.00
2022-12-31T07:52:47.177Z,124.00
2022-12-31T07:53:47.176Z,136.00
2022-12-31T07:54:47.461Z,148.00
2022-12-31T07:55:47.137Z,180.00
2022-12-31T07:56:47.102Z,200.00
2022-12-31T07:57:47.122Z,220.00
2022-12-31T07:58:47.148Z,244.00
2022-12-31T07:59:47.080Z,268.00
2022-12-31T08:00:47.111Z,284.00
2022-12-31T08:01:47.262Z,340.00
2022-12-31T08:02:47.092Z,384.00
2022-12-31T08:03:47.063Z,356.00
2022-12-31T08:04:47.068Z,336.00
2022-12-31T08:05:47.017Z,344.00
2022-12-31T08:06:47.006Z,344.00
2022-12-31T08:07:47.002Z,320.00
2022-12-31T08:08:46.983Z,344.00
2022-12-31T08:09:46.969Z,416.00
2022-12-31T08:10:47.001Z,488.00
2022-12-31T08:11:46.984Z,500.00
2022-12-31T08:12:46.958Z,440.00
2022-12-31T08:13:46.928Z,464.00
2022-12-31T08:14:46.931Z,480.00
2022-12-31T08:15:46.943Z,512.00
2022-12-31T08:16:46.953Z,520.00
2022-12-31T08:17:46.908Z,560.00
2022-12-31T08:18:46.873Z,604.00
2022-12-31T08:19:46.895Z,616.00
2022-12-31T08:20:46.878Z,664.00
2022-12-31T08:21:46.844Z,716.00
2022-12-31T08:22:46.833Z,796.00
2022-12-31T08:23:46.807Z,832.00
2022-12-31T08:24:46.793Z,844.00
2022-12-31T08:25:46.817Z,836.00
2022-12-31T08:26:52.618Z,800.00
2022-12-31T08:27:47.799Z,728.00
2022-12-31T08:28:46.745Z,696.00
2022-12-31T08:29:46.736Z,732.00
2022-12-31T08:30:46.740Z,756.00
2022-12-31T08:31:46.817Z,676.00
2022-12-31T08:32:46.730Z,756.00
2022-12-31T08:33:46.680Z,872.00
2022-12-31T08:34:46.733Z,1044.00
2022-12-31T08:35:46.734Z,1164.00
2022-12-31T08:36:46.686Z,1220.00
2022-12-31T08:37:46.646Z,1200.00
2022-12-31T08:38:46.635Z,1136.00
2022-12-31T08:39:46.667Z,1088.00
2022-12-31T08:40:46.633Z,1024.00
2022-12-31T08:41:46.620Z,904.00
2022-12-31T08:42:46.590Z,916.00
2022-12-31T08:43:46.619Z,824.00
2022-12-31T08:44:46.605Z,792.00
2022-12-31T08:45:46.620Z,804.00
2022-12-31T08:46:46.626Z,896.00
2022-12-31T08:47:46.577Z,964.00
2022-12-31T08:48:46.568Z,944.00
2022-12-31T08:49:46.530Z,844.00
2022-12-31T08:50:46.509Z,668.00
2022-12-31T08:51:46.571Z,736.00
2022-12-31T08:52:46.493Z,704.00
2022-12-31T08:53:46.467Z,748.00
2022-12-31T08:54:46.487Z,776.00
2022-12-31T08:55:46.464Z,932.00
2022-12-31T08:56:50.518Z,1100.00
2022-12-31T08:57:46.439Z,1184.00
2022-12-31T08:58:46.437Z,1368.00
2022-12-31T08:59:46.413Z,1780.00
2022-12-31T09:00:46.449Z,2060.00
2022-12-31T09:01:46.523Z,2396.00
2022-12-31T09:02:48.380Z,2532.00
2022-12-31T09:03:46.457Z,2416.00
2022-12-31T09:04:46.353Z,2228.00
2022-12-31T09:05:46.354Z,2280.00
2022-12-31T09:06:46.351Z,2368.00
2022-12-31T09:07:46.330Z,2304.00
2022-12-31T09:08:46.335Z,2392.00
2022-12-31T09:09:46.303Z,2456.00
2022-12-31T09:10:46.282Z,2504.00
2022-12-31T09:11:46.256Z,2760.00
2022-12-31T09:12:46.252Z,3108.00
2022-12-31T09:13:46.259Z,3340.00
2022-12-31T09:14:46.259Z,3304.00
2022-12-31T09:15:46.248Z,3272.00
2022-12-31T09:16:46.272Z,3404.00
2022-12-31T09:17:46.200Z,3348.00
2022-12-31T09:18:46.217Z,3392.00
2022-12-31T09:19:46.201Z,3276.00
2022-12-31T09:20:46.202Z,3232.00
2022-12-31T09:21:46.174Z,3420.00
2022-12-31T09:22:46.187Z,3348.00
2022-12-31T09:23:46.160Z,3236.00
2022-12-31T09:24:46.135Z,3328.00
2022-12-31T09:25:46.130Z,3448.00
2022-12-31T09:26:46.110Z,3924.00
2022-12-31T09:27:46.136Z,4232.00
2022-12-31T09:28:46.104Z,4180.00
2022-12-31T09:29:46.076Z,4076.00
2022-12-31T09:30:46.045Z,4092.00
2022-12-31T09:31:46.137Z,4096.00
2022-12-31T09:32:46.066Z,4260.00
2022-12-31T09:33:46.035Z,4416.00
2022-12-31T09:34:46.043Z,4604.00
2022-12-31T09:35:46.002Z,4856.00
2022-12-31T09:36:45.984Z,4944.00
2022-12-31T09:37:46.004Z,5128.00
2022-12-31T09:38:46.003Z,5172.00
2022-12-31T09:39:45.981Z,5396.00
2022-12-31T09:40:46.046Z,5240.00
2022-12-31T09:41:45.934Z,5176.00
2022-12-31T09:42:45.941Z,5068.00
2022-12-31T09:43:45.913Z,5048.00
2022-12-31T09:44:45.895Z,5140.00
2022-12-31T09:45:45.944Z,5340.00
2022-12-31T09:46:45.905Z,5108.00
2022-12-31T09:47:45.886Z,4452.00
2022-12-31T09:48:45.853Z,3976.00
2022-12-31T09:49:45.861Z,3856.00
2022-12-31T09:50:45.872Z,3844.00
2022-12-31T09:51:45.858Z,3892.00
2022-12-31T09:52:45.823Z,4024.00
2022-12-31T09:53:45.839Z,4172.00
2022-12-31T09:54:45.804Z,4076.00
2022-12-31T09:55:45.896Z,3980.00
2022-12-31T09:56:45.800Z,4032.00
2022-12-31T09:57:46.429Z,4100.00
2022-12-31T09:58:45.941Z,4164.00
2022-12-31T09:59:45.740Z,4192.00
2022-12-31T10:00:45.743Z,4132.00
2022-12-31T10:01:45.903Z,4028.00
2022-12-31T10:02:45.978Z,3940.00
2022-12-31T10:03:45.689Z,3844.00
2022-12-31T10:04:45.723Z,3648.00
2022-12-31T10:05:45.649Z,3656.00
2022-12-31T10:06:45.657Z,3888.00
2022-12-31T10:07:52.045Z,3776.00
2022-12-31T10:08:46.649Z,3648.00
2022-12-31T10:09:45.659Z,3628.00
2022-12-31T10:10:45.630Z,3716.00
2022-12-31T10:11:45.639Z,3652.00
2022-12-31T10:12:45.589Z,3724.00
2022-12-31T10:13:45.597Z,3852.00
2022-12-31T10:14:47.703Z,3672.00
2022-12-31T10:15:45.588Z,3240.00
2022-12-31T10:16:45.618Z,3020.00
2022-12-31T10:17:45.533Z,3228.00
2022-12-31T10:18:45.525Z,3544.00
2022-12-31T10:19:45.544Z,3560.00
2022-12-31T10:20:45.725Z,3552.00
2022-12-31T10:21:46.411Z,3576.00
2022-12-31T10:22:45.468Z,3704.00
2022-12-31T10:23:45.445Z,3444.00
2022-12-31T10:24:45.465Z,3428.00
2022-12-31T10:25:45.439Z,3588.00
2022-12-31T10:26:51.310Z,3684.00
2022-12-31T10:27:46.423Z,3436.00
2022-12-31T10:28:45.453Z,3416.00
2022-12-31T10:29:45.408Z,3480.00
2022-12-31T10:30:45.429Z,3532.00
2022-12-31T10:31:45.383Z,3712.00
2022-12-31T10:32:45.355Z,3900.00
2022-12-31T10:33:45.354Z,4044.00
2022-12-31T10:34:45.368Z,4292.00
2022-12-31T10:35:45.328Z,4448.00
2022-12-31T10:36:45.311Z,4176.00
2022-12-31T10:37:45.311Z,4032.00
2022-12-31T10:38:45.291Z,4260.00
2022-12-31T10:39:45.293Z,4308.00
2022-12-31T10:40:45.288Z,4012.00
2022-12-31T10:41:45.293Z,3832.00
2022-12-31T10:42:45.253Z,4060.00
2022-12-31T10:43:45.262Z,3900.00
2022-12-31T10:44:45.233Z,3608.00
2022-12-31T10:45:45.304Z,3616.00
2022-12-31T10:46:45.235Z,3416.00
2022-12-31T10:47:45.244Z,3368.00
2022-12-31T10:48:45.215Z,3336.00
2022-12-31T10:49:45.181Z,2908.00
2022-12-31T10:50:45.165Z,2276.00
2022-12-31T10:51:45.133Z,2200.00
2022-12-31T10:52:45.137Z,2292.00
2022-12-31T10:53:45.154Z,2560.00
2022-12-31T10:54:45.121Z,2548.00
2022-12-31T10:55:45.115Z,2500.00
2022-12-31T10:56:45.106Z,2388.00
2022-12-31T10:57:45.067Z,2232.00
2022-12-31T10:58:45.202Z,2056.00
2022-12-31T10:59:45.079Z,2068.00
2022-12-31T11:00:45.051Z,2232.00
2022-12-31T11:01:45.166Z,2424.00
2022-12-31T11:02:45.258Z,2432.00
2022-12-31T11:03:45.126Z,2228.00
2022-12-31T11:04:45.001Z,2256.00
2022-12-31T11:05:44.995Z,2476.00
2022-12-31T11:06:44.979Z,2844.00
2022-12-31T11:07:44.994Z,2844.00
2022-12-31T11:08:44.967Z,2944.00
2022-12-31T11:09:44.928Z,3228.00
2022-12-31T11:10:44.928Z,3396.00
2022-12-31T11:11:44.938Z,3144.00
2022-12-31T11:12:44.891Z,2876.00
2022-12-31T11:13:44.906Z,3384.00
2022-12-31T11:14:44.938Z,3924.00
2022-12-31T11:15:49.925Z,4016.00
2022-12-31T11:16:45.867Z,4100.00
2022-12-31T11:17:44.865Z,4208.00
2022-12-31T11:18:44.854Z,4372.00
2022-12-31T11:19:44.835Z,4340.00
2022-12-31T11:20:44.818Z,4420.00
2022-12-31T11:21:44.802Z,4312.00
2022-12-31T11:22:44.818Z,3744.00
2022-12-31T11:23:44.796Z,3436.00
2022-12-31T11:24:44.773Z,3688.00
2022-12-31T11:25:44.781Z,3684.00
2022-12-31T11:26:44.737Z,3492.00
2022-12-31T11:27:47.621Z,3288.00
2022-12-31T11:28:44.757Z,3220.00
2022-12-31T11:29:44.741Z,3056.00
2022-12-31T11:30:44.737Z,3224.00
2022-12-31T11:31:44.703Z,3180.00
2022-12-31T11:32:44.696Z,2984.00
2022-12-31T11:33:50.172Z,2936.00
2022-12-31T11:34:45.658Z,2928.00
2022-12-31T11:35:44.640Z,3020.00
2022-12-31T11:36:44.643Z,3068.00
2022-12-31T11:37:44.629Z,3336.00
2022-12-31T11:38:44.641Z,3596.00
2022-12-31T11:39:44.619Z,3824.00
2022-12-31T11:40:44.598Z,3888.00
2022-12-31T11:41:44.600Z,3904.00
2022-12-31T11:42:44.576Z,3764.00
2022-12-31T11:43:44.572Z,3532.00
2022-12-31T11:44:44.556Z,3296.00
2022-12-31T11:45:50.345Z,3156.00
2022-12-31T11:46:45.591Z,3136.00
2022-12-31T11:48:20.095Z,3064.00
2022-12-31T11:48:45.510Z,2976.00
2022-12-31T11:49:44.494Z,2932.00
2022-12-31T11:50:44.466Z,2908.00
2022-12-31T11:51:50.183Z,2864.00
2022-12-31T11:52:45.549Z,2796.00
2022-12-31T11:53:44.444Z,2760.00
2022-12-31T11:54:44.442Z,2716.00
2022-12-31T11:55:44.406Z,2768.00
2022-12-31T11:56:44.428Z,2956.00
2022-12-31T11:57:44.414Z,3228.00
2022-12-31T11:58:44.410Z,3456.00
2022-12-31T11:59:44.372Z,3576.00
2022-12-31T12:00:44.387Z,3536.00
2022-12-31T12:01:44.364Z,3592.00
2022-12-31T12:02:44.410Z,3824.00
2022-12-31T12:03:44.404Z,3820.00
2022-12-31T12:04:44.313Z,3688.00
2022-12-31T12:05:44.304Z,3584.00
2022-12-31T12:06:44.316Z,3596.00
2022-12-31T12:07:44.309Z,3616.00
2022-12-31T12:08:44.281Z,3792.00
2022-12-31T12:09:44.271Z,3860.00
2022-12-31T12:10:44.293Z,3568.00
2022-12-31T12:11:44.245Z,3324.00
2022-12-31T12:12:44.230Z,3416.00
2022-12-31T12:13:44.215Z,3632.00
2022-12-31T12:14:44.228Z,3800.00
2022-12-31T12:15:44.214Z,3840.00
2022-12-31T12:16:44.290Z,3652.00
2022-12-31T12:17:44.173Z,3532.00
2022-12-31T12:18:44.175Z,3296.00
2022-12-31T12:19:44.201Z,2996.00
2022-12-31T12:20:44.166Z,2952.00
2022-12-31T12:21:44.115Z,3120.00
2022-12-31T12:22:49.469Z,3180.00
2022-12-31T12:23:45.125Z,3320.00
2022-12-31T12:24:44.122Z,3464.00
2022-12-31T12:25:44.094Z,3616.00
2022-12-31T12:26:44.111Z,3636.00
2022-12-31T12:27:44.076Z,4060.00
2022-12-31T12:28:44.576Z,3188.00
2022-12-31T12:29:44.062Z,2948.00
2022-12-31T12:30:44.029Z,2968.00
2022-12-31T12:31:44.064Z,2928.00
2022-12-31T12:32:44.012Z,3056.00
2022-12-31T12:33:43.984Z,3224.00
2022-12-31T12:34:49.396Z,3596.00
2022-12-31T12:35:44.998Z,3812.00
2022-12-31T12:36:44.035Z,3852.00
2022-12-31T12:37:43.930Z,4108.00
2022-12-31T12:38:43.930Z,3972.00
2022-12-31T12:39:43.933Z,4156.00
2022-12-31T12:40:43.909Z,4468.00
2022-12-31T12:41:43.924Z,4524.00
2022-12-31T12:42:43.906Z,4492.00
2022-12-31T12:43:43.881Z,4704.00
2022-12-31T12:44:43.879Z,4976.00
2022-12-31T12:45:47.798Z,5088.00
2022-12-31T12:46:48.299Z,4968.00
2022-12-31T12:47:43.846Z,4864.00
2022-12-31T12:48:43.856Z,4840.00
2022-12-31T12:49:43.823Z,4356.00